createdAt,value
2023-01-20T00:03:14.115Z,17.02
2023-01-20T00:08:15.412Z,16.35
2023-01-20T00:13:16.718Z,16.58
2023-01-20T00:18:18.025Z,16.23
2023-01-20T00:23:19.338Z,15.85
2023-01-20T00:28:20.661Z,15.02
2023-01-20T00:33:21.965Z,17.40
2023-01-20T00:38:23.305Z,16.63
2023-01-20T00:43:25.068Z,16.75
2023-01-20T00:48:26.404Z,18.17
2023-01-20T00:53:27.789Z,17.08
2023-01-20T00:58:29.229Z,17.85
2023-01-20T01:03:30.602Z,19.20
2023-01-20T01:08:32.875Z,16.70
2023-01-20T01:13:34.622Z,16.45
2023-01-20T01:18:35.930Z,17.80
2023-01-20T01:23:37.319Z,16.13
2023-01-20T01:28:39.751Z,18.33
2023-01-20T01:33:41.203Z,19.65
2023-01-20T01:38:43.084Z,18.02
2023-01-20T01:44:03.747Z,19.80
2023-01-20T01:49:11.076Z,24.75
2023-01-20T01:54:16.947Z,17.63
2023-01-20T01:59:18.902Z,22.77
2023-01-20T02:04:23.175Z,26.33
2023-01-20T02:09:26.846Z,21.67
2023-01-20T02:14:34.264Z,26.25
2023-01-20T02:19:35.551Z,21.67
2023-01-20T02:25:00.127Z,33.60
2023-01-20T02:30:26.405Z,25.08
2023-01-20T02:35:36.932Z,22.25
2023-01-20T02:41:07.082Z,27.30
2023-01-20T02:46:14.226Z,17.83
2023-01-20T02:51:25.557Z,18.60
2023-01-20T02:56:29.114Z,18.10
2023-01-20T03:01:36.242Z,20.48
2023-01-20T03:06:43.782Z,20.05
2023-01-20T03:11:53.652Z,31.77
2023-01-20T03:16:55.203Z,20.27
2023-01-20T03:21:57.343Z,27.00
2023-01-20T03:26:59.424Z,22.75
2023-01-20T03:32:03.319Z,18.02
2023-01-20T03:37:05.440Z,33.60
2023-01-20T03:42:13.879Z,21.75
2023-01-20T03:47:33.409Z,31.83
2023-01-20T03:52:47.126Z,20.13
2023-01-20T03:58:04.645Z,32.45
2023-01-20T04:03:12.734Z,24.67
2023-01-20T04:08:17.481Z,29.65
2023-01-20T04:13:18.845Z,27.77
2023-01-20T04:18:23.034Z,22.27
2023-01-20T04:23:30.955Z,20.73
2023-01-20T04:28:32.488Z,24.77
2023-01-20T04:33:37.221Z,19.10
2023-01-20T04:38:38.537Z,15.52
2023-01-20T04:43:44.127Z,20.45
2023-01-20T04:48:46.252Z,21.55
2023-01-20T04:53:47.598Z,18.88
2023-01-20T04:58:49.033Z,19.75
2023-01-20T05:03:50.355Z,22.85
2023-01-20T05:08:51.952Z,16.60
2023-01-20T05:13:53.313Z,19.10
2023-01-20T05:18:54.624Z,16.75
2023-01-20T05:23:57.215Z,16.08
2023-01-20T05:28:58.590Z,14.68
2023-01-20T05:34:00.059Z,13.75
2023-01-20T05:39:01.663Z,15.73
2023-01-20T05:44:03.092Z,15.15
2023-01-20T05:49:04.445Z,13.43
2023-01-20T05:54:05.861Z,14.45
2023-01-20T05:59:07.771Z,16.08
2023-01-20T06:04:09.392Z,14.93
2023-01-20T06:09:10.969Z,13.07
2023-01-20T06:14:12.352Z,14.65
2023-01-20T06:19:13.816Z,15.13
2023-01-20T06:24:15.167Z,14.05
2023-01-20T06:29:16.617Z,13.57
2023-01-20T06:34:17.935Z,13.98
2023-01-20T06:39:19.309Z,12.43
2023-01-20T06:44:20.677Z,11.70
2023-01-20T06:49:21.982Z,12.20
2023-01-20T06:54:23.456Z,12.60
2023-01-20T06:59:24.780Z,11.82
2023-01-20T07:04:26.165Z,13.00
2023-01-20T07:09:27.524Z,14.05
2023-01-20T07:14:28.848Z,14.18
2023-01-20T07:19:30.183Z,13.85
2023-01-20T07:24:31.619Z,12.15
2023-01-20T07:29:32.962Z,13.52
2023-01-20T07:34:34.262Z,12.70
2023-01-20T07:39:36.373Z,11.05
2023-01-20T07:44:37.676Z,11.43
2023-01-20T07:49:39.008Z,12.23
2023-01-20T07:54:40.389Z,12.95
2023-01-20T07:59:41.725Z,13.88
2023-01-20T08:04:43.189Z,13.23
2023-01-20T08:09:44.590Z,12.77
2023-01-20T08:14:45.918Z,15.30
2023-01-20T08:19:47.325Z,16.25
2023-01-20T08:24:48.657Z,16.15
2023-01-20T08:29:49.978Z,14.85
2023-01-20T08:34:51.294Z,16.13
2023-01-20T08:39:52.661Z,14.45
2023-01-20T08:44:54.062Z,15.60
2023-01-20T08:49:55.443Z,18.58
2023-01-20T08:54:58.652Z,17.80
2023-01-20T09:00:00.039Z,19.17
2023-01-20T09:05:01.430Z,17.58
2023-01-20T09:10:04.347Z,17.65
2023-01-20T09:15:07.501Z,17.35
2023-01-20T09:20:09.844Z,17.42
2023-01-20T09:25:11.406Z,17.52
2023-01-20T09:30:13.053Z,16.63
2023-01-20T09:35:14.929Z,17.40
2023-01-20T09:40:42.723Z,19.10
2023-01-20T09:45:56.735Z,17.33
2023-01-20T09:51:22.120Z,17.30
2023-01-20T09:56:27.561Z,15.60
2023-01-20T10:01:52.758Z,16.40
2023-01-20T10:07:33.391Z,17.00
2023-01-20T10:12:42.660Z,17.55
2023-01-20T10:18:13.981Z,17.33
2023-01-20T10:23:21.555Z,17.85
2023-01-20T10:28:32.165Z,17.65
2023-01-20T10:33:45.313Z,16.20
2023-01-20T10:38:54.179Z,17.65
2023-01-20T10:43:57.752Z,16.58
2023-01-20T10:49:31.845Z,18.23
2023-01-20T10:54:46.184Z,19.38
2023-01-20T10:59:55.525Z,19.23
2023-01-20T11:05:23.994Z,20.63
2023-01-20T11:10:29.997Z,19.00
2023-01-20T11:15:35.419Z,19.50
2023-01-20T11:20:37.104Z,23.20
2023-01-20T11:25:39.188Z,21.35
2023-01-20T11:30:40.708Z,22.10
2023-01-20T11:36:07.246Z,21.13
2023-01-20T11:41:20.947Z,21.50
2023-01-20T11:46:29.942Z,22.15
2023-01-20T11:51:31.412Z,21.90
2023-01-20T11:56:41.448Z,23.52
2023-01-20T12:01:51.723Z,23.42
2023-01-20T12:07:03.444Z,21.13
2023-01-20T12:12:10.341Z,21.35
2023-01-20T12:17:17.356Z,20.00
2023-01-20T12:22:26.187Z,20.73
2023-01-20T12:27:28.158Z,18.25
2023-01-20T12:32:31.467Z,19.77
2023-01-20T12:37:47.083Z,19.80
2023-01-20T12:43:16.268Z,20.85
2023-01-20T12:48:49.916Z,21.13
2023-01-20T12:54:10.055Z,20.90
2023-01-20T12:59:39.606Z,20.13
2023-01-20T13:05:04.749Z,19.23
2023-01-20T13:10:25.700Z,18.70
2023-01-20T13:15:34.355Z,19.30
2023-01-20T13:20:40.497Z,18.80
2023-01-20T13:25:46.852Z,18.48
2023-01-20T13:30:54.207Z,17.13
2023-01-20T13:35:56.603Z,17.30
2023-01-20T13:41:06.113Z,16.52
2023-01-20T13:46:15.111Z,16.80
2023-01-20T13:51:19.180Z,16.48
2023-01-20T13:56:26.234Z,16.77
2023-01-20T14:01:28.472Z,16.35
2023-01-20T14:06:30.373Z,16.98
2023-01-20T14:11:31.829Z,15.05
2023-01-20T14:16:36.235Z,15.82
2023-01-20T14:21:41.706Z,15.35
2023-01-20T14:26:43.032Z,15.45
2023-01-20T14:31:46.160Z,15.60
2023-01-20T14:36:47.920Z,15.40
2023-01-20T14:41:54.868Z,15.18
2023-01-20T14:47:01.350Z,15.97
2023-01-20T14:52:04.355Z,16.60
2023-01-20T14:57:40.899Z,15.65
2023-01-20T15:03:11.022Z,15.63
2023-01-20T15:08:26.005Z,16.85
2023-01-20T15:13:29.733Z,16.75
2023-01-20T15:18:31.156Z,16.23
2023-01-20T15:23:38.838Z,15.40
2023-01-20T15:28:44.386Z,16.10
2023-01-20T15:33:45.735Z,15.60
2023-01-20T15:38:47.333Z,16.35
2023-01-20T15:43:51.102Z,15.45
2023-01-20T15:48:52.449Z,17.55
2023-01-20T15:53:53.837Z,16.00
2023-01-20T15:58:56.055Z,18.50
2023-01-20T16:03:58.417Z,15.45
2023-01-20T16:09:12.663Z,16.30
2023-01-20T16:14:14.059Z,16.75
2023-01-20T16:19:15.978Z,16.13
2023-01-20T16:24:17.297Z,16.38
2023-01-20T16:29:18.674Z,16.38
2023-01-20T16:34:20.037Z,16.50
2023-01-20T16:39:21.350Z,16.65
2023-01-20T16:44:22.659Z,16.55
2023-01-20T16:49:23.998Z,16.73
2023-01-20T16:54:25.378Z,16.85
2023-01-20T16:59:26.697Z,17.58
2023-01-20T17:04:29.358Z,17.35
2023-01-20T17:09:30.671Z,17.52
2023-01-20T17:14:32.173Z,15.75
2023-01-20T17:19:33.553Z,16.67
2023-01-20T17:24:35.020Z,17.10
2023-01-20T17:29:36.677Z,16.58
2023-01-20T17:34:37.995Z,17.45
2023-01-20T17:39:39.450Z,17.40
2023-01-20T17:44:40.769Z,18.30
2023-01-20T17:49:42.145Z,20.15
2023-01-20T17:54:43.484Z,17.58
2023-01-20T17:59:44.828Z,17.65
2023-01-20T18:04:46.234Z,16.70
2023-01-20T18:09:47.542Z,17.35
2023-01-20T18:14:48.856Z,17.90
2023-01-20T18:19:50.472Z,17.20
2023-01-20T18:24:51.901Z,18.70
2023-01-20T18:29:53.235Z,17.40
2023-01-20T18:34:54.703Z,17.38
2023-01-20T18:39:56.103Z,18.55
2023-01-20T18:44:57.425Z,18.80
2023-01-20T18:49:58.734Z,18.15
2023-01-20T18:55:00.123Z,21.45
2023-01-20T19:00:01.602Z,21.17
2023-01-20T19:05:03.053Z,19.50
2023-01-20T19:10:04.693Z,18.30
2023-01-20T19:15:06.690Z,18.85
2023-01-20T19:20:09.182Z,21.00
2023-01-20T19:25:10.844Z,19.27
2023-01-20T19:30:12.979Z,19.25
2023-01-20T19:35:14.331Z,19.10
2023-01-20T19:40:16.452Z,20.23
2023-01-20T19:45:18.521Z,18.45
2023-01-20T19:50:19.875Z,18.10
2023-01-20T19:55:21.210Z,18.30
2023-01-20T20:00:22.675Z,19.67
2023-01-20T20:05:24.012Z,18.85
2023-01-20T20:10:25.343Z,20.60
2023-01-20T20:15:26.763Z,17.65
2023-01-20T20:20:28.097Z,17.50
2023-01-20T20:25:29.461Z,17.40
2023-01-20T20:30:30.869Z,19.00
2023-01-20T20:35:35.403Z,17.98
2023-01-20T20:40:36.708Z,17.23
2023-01-20T20:45:38.157Z,19.20
2023-01-20T20:50:39.464Z,18.77
2023-01-20T20:55:41.887Z,20.60
2023-01-20T21:00:43.240Z,19.35
2023-01-20T21:05:48.847Z,19.77
2023-01-20T21:10:50.546Z,18.25
2023-01-20T21:15:56.432Z,18.17
2023-01-20T21:20:59.961Z,18.48
2023-01-20T21:26:02.967Z,16.55
2023-01-20T21:31:12.816Z,17.70
2023-01-20T21:36:14.699Z,15.80
2023-01-20T21:41:17.151Z,15.05
2023-01-20T21:46:19.077Z,14.23
2023-01-20T21:51:46.305Z,15.73
2023-01-20T21:56:48.449Z,9.90
2023-01-20T22:01:50.039Z,12.90
2023-01-20T22:06:51.382Z,14.52
2023-01-20T22:11:52.712Z,12.52
2023-01-20T22:16:54.097Z,13.88
2023-01-20T22:21:56.762Z,13.18
2023-01-20T22:26:58.242Z,12.98
2023-01-20T22:32:02.246Z,11.73
2023-01-20T22:37:03.602Z,12.30
2023-01-20T22:42:05.101Z,12.00
2023-01-20T22:47:09.666Z,12.48
2023-01-20T22:52:10.983Z,11.45
2023-01-20T22:57:13.022Z,12.77
2023-01-20T23:02:14.522Z,11.48
2023-01-20T23:07:15.850Z,12.00
2023-01-20T23:12:17.224Z,12.07
2023-01-20T23:17:18.541Z,12.40
2023-01-20T23:22:20.413Z,11.70
2023-01-20T23:27:21.796Z,12.13
2023-01-20T23:32:23.844Z,12.35
2023-01-20T23:37:25.178Z,12.55
2023-01-20T23:42:26.535Z,12.48
2023-01-20T23:47:27.887Z,12.95
2023-01-20T23:52:29.302Z,12.80
2023-01-20T23:57:30.636Z,12.00
